sensor_id;sensor_type;location;lat;lon;timestamp;temperature;humidity
62573;DHT22;48626;51.678;5.806;2023-01-29T00:01:50;0.70;99.90
62573;DHT22;48626;51.678;5.806;2023-01-29T00:04:16;0.70;99.90
62573;DHT22;48626;51.678;5.806;2023-01-29T00:06:42;0.70;99.90
62573;DHT22;48626;51.678;5.806;2023-01-29T00:09:09;0.70;99.90
62573;DHT22;48626;51.678;5.806;2023-01-29T00:11:35;0.70;99.90
62573;DHT22;48626;51.678;5.806;2023-01-29T00:14:00;0.60;99.90
62573;DHT22;48626;51.678;5.806;2023-01-29T00:16:26;0.50;99.90
62573;DHT22;48626;51.678;5.806;2023-01-29T00:18:52;0.40;99.90
62573;DHT22;48626;51.678;5.806;2023-01-29T00:21:20;0.40;99.90
62573;DHT22;48626;51.678;5.806;2023-01-29T00:23:49;0.30;99.90
62573;DHT22;48626;51.678;5.806;2023-01-29T00:26:15;0.20;99.90
62573;DHT22;48626;51.678;5.806;2023-01-29T00:28:41;0.10;99.90
62573;DHT22;48626;51.678;5.806;2023-01-29T00:31:08;0.10;99.90
62573;DHT22;48626;51.678;5.806;2023-01-29T00:33:34;0.00;99.90
62573;DHT22;48626;51.678;5.806;2023-01-29T00:36:04;0.00;99.90
62573;DHT22;48626;51.678;5.806;2023-01-29T00:38:30;0.00;99.90
62573;DHT22;48626;51.678;5.806;2023-01-29T00:40:56;-0.10;99.90
62573;DHT22;48626;51.678;5.806;2023-01-29T00:43:40;-0.10;99.90
62573;DHT22;48626;51.678;5.806;2023-01-29T00:46:24;-0.10;99.90
62573;DHT22;48626;51.678;5.806;2023-01-29T00:48:50;-0.10;99.90
62573;DHT22;48626;51.678;5.806;2023-01-29T00:51:15;-0.10;99.90
62573;DHT22;48626;51.678;5.806;2023-01-29T00:53:41;-0.10;99.90
62573;DHT22;48626;51.678;5.806;2023-01-29T00:56:07;-0.10;99.90
62573;DHT22;48626;51.678;5.806;2023-01-29T00:58:32;-0.10;99.90
62573;DHT22;48626;51.678;5.806;2023-01-29T01:01:01;-0.10;99.90
62573;DHT22;48626;51.678;5.806;2023-01-29T01:03:28;-0.10;99.90
62573;DHT22;48626;51.678;5.806;2023-01-29T01:06:05;-0.20;99.90
62573;DHT22;48626;51.678;5.806;2023-01-29T01:08:31;-0.20;99.90
62573;DHT22;48626;51.678;5.806;2023-01-29T01:11:16;-0.20;99.90
62573;DHT22;48626;51.678;5.806;2023-01-29T01:13:41;-0.20;99.90
62573;DHT22;48626;51.678;5.806;2023-01-29T01:16:15;-0.20;99.90
62573;DHT22;48626;51.678;5.806;2023-01-29T01:18:41;-0.20;99.90
62573;DHT22;48626;51.678;5.806;2023-01-29T01:21:07;-0.20;99.90
62573;DHT22;48626;51.678;5.806;2023-01-29T01:23:33;-0.20;99.90
62573;DHT22;48626;51.678;5.806;2023-01-29T01:25:59;-0.20;99.90
62573;DHT22;48626;51.678;5.806;2023-01-29T01:28:26;-0.30;99.90
62573;DHT22;48626;51.678;5.806;2023-01-29T01:30:51;-0.30;99.90
62573;DHT22;48626;51.678;5.806;2023-01-29T01:33:17;-0.30;99.90
62573;DHT22;48626;51.678;5.806;2023-01-29T01:35:43;-0.20;99.90
62573;DHT22;48626;51.678;5.806;2023-01-29T01:38:08;-0.20;99.90
62573;DHT22;48626;51.678;5.806;2023-01-29T01:40:35;-0.20;99.90
62573;DHT22;48626;51.678;5.806;2023-01-29T01:43:00;-0.10;99.90
62573;DHT22;48626;51.678;5.806;2023-01-29T01:45:34;-0.10;99.90
62573;DHT22;48626;51.678;5.806;2023-01-29T01:48:02;0.00;99.90
62573;DHT22;48626;51.678;5.806;2023-01-29T01:50:53;0.00;99.90
62573;DHT22;48626;51.678;5.806;2023-01-29T01:53:37;0.00;99.90
62573;DHT22;48626;51.678;5.806;2023-01-29T01:56:10;0.00;99.90
62573;DHT22;48626;51.678;5.806;2023-01-29T01:58:42;0.00;99.90
62573;DHT22;48626;51.678;5.806;2023-01-29T02:01:10;0.00;99.90
62573;DHT22;48626;51.678;5.806;2023-01-29T02:03:42;0.00;99.90
62573;DHT22;48626;51.678;5.806;2023-01-29T02:06:27;0.00;99.90
62573;DHT22;48626;51.678;5.806;2023-01-29T02:09:17;0.00;99.90
62573;DHT22;48626;51.678;5.806;2023-01-29T02:12:11;0.00;99.90
62573;DHT22;48626;51.678;5.806;2023-01-29T02:14:39;0.00;99.90
62573;DHT22;48626;51.678;5.806;2023-01-29T02:17:07;0.10;99.90
62573;DHT22;48626;51.678;5.806;2023-01-29T02:19:40;0.10;99.90
62573;DHT22;48626;51.678;5.806;2023-01-29T02:31:16;0.20;99.90
62573;DHT22;48626;51.678;5.806;2023-01-29T02:47:16;0.30;99.90
62573;DHT22;48626;51.678;5.806;2023-01-29T02:58:11;0.40;99.90
62573;DHT22;48626;51.678;5.806;2023-01-29T03:00:40;0.40;99.90
62573;DHT22;48626;51.678;5.806;2023-01-29T03:03:19;0.50;99.90
62573;DHT22;48626;51.678;5.806;2023-01-29T03:06:07;0.50;99.90
62573;DHT22;48626;51.678;5.806;2023-01-29T03:08:41;0.50;99.90
62573;DHT22;48626;51.678;5.806;2023-01-29T03:11:09;0.60;99.90
62573;DHT22;48626;51.678;5.806;2023-01-29T03:16:25;0.60;99.90
62573;DHT22;48626;51.678;5.806;2023-01-29T03:19:25;0.70;99.90
62573;DHT22;48626;51.678;5.806;2023-01-29T03:21:57;0.70;99.90
62573;DHT22;48626;51.678;5.806;2023-01-29T03:24:56;0.70;99.90
62573;DHT22;48626;51.678;5.806;2023-01-29T03:27:49;0.80;99.90
62573;DHT22;48626;51.678;5.806;2023-01-29T03:30:39;0.80;99.90
62573;DHT22;48626;51.678;5.806;2023-01-29T03:33:25;0.80;99.90
62573;DHT22;48626;51.678;5.806;2023-01-29T03:36:04;0.80;99.90
62573;DHT22;48626;51.678;5.806;2023-01-29T03:38:31;0.80;99.90
62573;DHT22;48626;51.678;5.806;2023-01-29T03:41:07;0.90;99.90
62573;DHT22;48626;51.678;5.806;2023-01-29T03:44:02;0.90;99.90
62573;DHT22;48626;51.678;5.806;2023-01-29T03:46:30;0.90;99.90
62573;DHT22;48626;51.678;5.806;2023-01-29T03:49:12;0.90;99.90
62573;DHT22;48626;51.678;5.806;2023-01-29T03:54:35;1.00;99.90
62573;DHT22;48626;51.678;5.806;2023-01-29T03:57:13;1.00;99.90
62573;DHT22;48626;51.678;5.806;2023-01-29T04:02:26;1.00;99.90
62573;DHT22;48626;51.678;5.806;2023-01-29T04:04:56;1.00;99.90
62573;DHT22;48626;51.678;5.806;2023-01-29T04:07:23;1.10;99.90
62573;DHT22;48626;51.678;5.806;2023-01-29T04:09:55;1.00;99.90
62573;DHT22;48626;51.678;5.806;2023-01-29T04:12:27;1.00;99.90
62573;DHT22;48626;51.678;5.806;2023-01-29T04:14:55;1.10;99.90
62573;DHT22;48626;51.678;5.806;2023-01-29T04:17:26;1.10;99.90
62573;DHT22;48626;51.678;5.806;2023-01-29T04:19:54;1.10;99.90
62573;DHT22;48626;51.678;5.806;2023-01-29T04:22:27;1.10;99.90
62573;DHT22;48626;51.678;5.806;2023-01-29T04:24:56;1.10;99.90
62573;DHT22;48626;51.678;5.806;2023-01-29T04:28:04;1.10;99.90
62573;DHT22;48626;51.678;5.806;2023-01-29T04:46:56;1.10;99.90
62573;DHT22;48626;51.678;5.806;2023-01-29T04:49:49;1.10;99.90
62573;DHT22;48626;51.678;5.806;2023-01-29T04:52:36;1.10;99.90
62573;DHT22;48626;51.678;5.806;2023-01-29T04:55:20;1.10;99.90
62573;DHT22;48626;51.678;5.806;2023-01-29T05:00:30;1.10;99.90
62573;DHT22;48626;51.678;5.806;2023-01-29T05:02:59;1.20;99.90
62573;DHT22;48626;51.678;5.806;2023-01-29T05:05:25;1.20;99.90
62573;DHT22;48626;51.678;5.806;2023-01-29T05:07:53;1.20;99.90
62573;DHT22;48626;51.678;5.806;2023-01-29T05:10:20;1.20;99.90
62573;DHT22;48626;51.678;5.806;2023-01-29T05:12:51;1.20;99.90
62573;DHT22;48626;51.678;5.806;2023-01-29T05:15:23;1.20;99.90
62573;DHT22;48626;51.678;5.806;2023-01-29T05:17:51;1.30;99.90
62573;DHT22;48626;51.678;5.806;2023-01-29T05:20:18;1.30;99.90
62573;DHT22;48626;51.678;5.806;2023-01-29T05:22:45;1.30;99.90
62573;DHT22;48626;51.678;5.806;2023-01-29T05:25:23;1.30;99.90
62573;DHT22;48626;51.678;5.806;2023-01-29T05:27:51;1.30;99.90
62573;DHT22;48626;51.678;5.806;2023-01-29T05:30:37;1.40;99.90
62573;DHT22;48626;51.678;5.806;2023-01-29T05:33:08;1.30;99.90
62573;DHT22;48626;51.678;5.806;2023-01-29T05:35:36;1.40;99.90
62573;DHT22;48626;51.678;5.806;2023-01-29T05:38:01;1.40;99.90
62573;DHT22;48626;51.678;5.806;2023-01-29T05:40:27;1.40;99.90
62573;DHT22;48626;51.678;5.806;2023-01-29T05:42:53;1.40;99.90
62573;DHT22;48626;51.678;5.806;2023-01-29T05:45:19;1.40;99.90
62573;DHT22;48626;51.678;5.806;2023-01-29T05:47:45;1.40;99.90
62573;DHT22;48626;51.678;5.806;2023-01-29T05:50:11;1.40;99.90
62573;DHT22;48626;51.678;5.806;2023-01-29T05:52:37;1.50;99.90
62573;DHT22;48626;51.678;5.806;2023-01-29T05:55:03;1.40;99.90
62573;DHT22;48626;51.678;5.806;2023-01-29T05:57:29;1.50;99.90
62573;DHT22;48626;51.678;5.806;2023-01-29T05:59:55;1.50;99.90
62573;DHT22;48626;51.678;5.806;2023-01-29T06:02:21;1.50;99.90
62573;DHT22;48626;51.678;5.806;2023-01-29T06:04:46;1.50;99.90
62573;DHT22;48626;51.678;5.806;2023-01-29T06:07:12;1.60;99.90
62573;DHT22;48626;51.678;5.806;2023-01-29T06:09:38;1.60;99.90
62573;DHT22;48626;51.678;5.806;2023-01-29T06:12:03;1.60;99.90
62573;DHT22;48626;51.678;5.806;2023-01-29T06:14:30;1.60;99.90
62573;DHT22;48626;51.678;5.806;2023-01-29T06:16:56;1.60;99.90
62573;DHT22;48626;51.678;5.806;2023-01-29T06:19:22;1.60;99.90
62573;DHT22;48626;51.678;5.806;2023-01-29T06:21:48;1.70;99.90
62573;DHT22;48626;51.678;5.806;2023-01-29T06:24:13;1.70;99.90
62573;DHT22;48626;51.678;5.806;2023-01-29T06:26:39;1.70;99.90
62573;DHT22;48626;51.678;5.806;2023-01-29T06:29:04;1.70;99.90
62573;DHT22;48626;51.678;5.806;2023-01-29T06:31:30;1.70;99.90
62573;DHT22;48626;51.678;5.806;2023-01-29T06:33:56;1.70;99.90
62573;DHT22;48626;51.678;5.806;2023-01-29T06:36:22;1.70;99.90
62573;DHT22;48626;51.678;5.806;2023-01-29T06:38:48;1.70;99.90
62573;DHT22;48626;51.678;5.806;2023-01-29T06:41:16;1.70;99.90
62573;DHT22;48626;51.678;5.806;2023-01-29T06:43:46;1.70;99.90
62573;DHT22;48626;51.678;5.806;2023-01-29T06:46:12;1.70;99.90
62573;DHT22;48626;51.678;5.806;2023-01-29T06:48:38;1.80;99.90
62573;DHT22;48626;51.678;5.806;2023-01-29T06:51:06;1.80;99.90
62573;DHT22;48626;51.678;5.806;2023-01-29T06:53:33;1.80;99.90
62573;DHT22;48626;51.678;5.806;2023-01-29T06:55:59;1.80;99.90
62573;DHT22;48626;51.678;5.806;2023-01-29T06:58:25;1.80;99.90
62573;DHT22;48626;51.678;5.806;2023-01-29T07:00:51;1.80;99.90
62573;DHT22;48626;51.678;5.806;2023-01-29T07:03:17;1.80;99.90
62573;DHT22;48626;51.678;5.806;2023-01-29T07:05:42;1.80;99.90
62573;DHT22;48626;51.678;5.806;2023-01-29T07:08:08;1.80;99.90
62573;DHT22;48626;51.678;5.806;2023-01-29T07:10:36;1.90;99.90
62573;DHT22;48626;51.678;5.806;2023-01-29T07:13:02;1.90;99.90
62573;DHT22;48626;51.678;5.806;2023-01-29T07:15:27;1.90;99.90
62573;DHT22;48626;51.678;5.806;2023-01-29T07:17:58;1.90;99.90
62573;DHT22;48626;51.678;5.806;2023-01-29T07:20:27;1.90;99.90
62573;DHT22;48626;51.678;5.806;2023-01-29T07:22:53;1.90;99.90
62573;DHT22;48626;51.678;5.806;2023-01-29T07:25:22;1.90;99.90
62573;DHT22;48626;51.678;5.806;2023-01-29T07:27:48;1.90;99.90
62573;DHT22;48626;51.678;5.806;2023-01-29T07:30:15;1.90;99.90
62573;DHT22;48626;51.678;5.806;2023-01-29T07:32:41;1.90;99.90
62573;DHT22;48626;51.678;5.806;2023-01-29T07:35:07;1.90;99.90
62573;DHT22;48626;51.678;5.806;2023-01-29T07:37:33;2.00;99.90
62573;DHT22;48626;51.678;5.806;2023-01-29T07:39:58;2.00;99.90
62573;DHT22;48626;51.678;5.806;2023-01-29T07:42:24;2.00;99.90
62573;DHT22;48626;51.678;5.806;2023-01-29T07:44:49;2.00;99.90
62573;DHT22;48626;51.678;5.806;2023-01-29T07:47:15;2.00;99.90
62573;DHT22;48626;51.678;5.806;2023-01-29T07:49:41;2.00;99.90
62573;DHT22;48626;51.678;5.806;2023-01-29T07:52:06;2.00;99.90
62573;DHT22;48626;51.678;5.806;2023-01-29T07:54:32;2.00;99.90
62573;DHT22;48626;51.678;5.806;2023-01-29T07:56:58;2.00;99.90
62573;DHT22;48626;51.678;5.806;2023-01-29T07:59:23;2.00;99.90
62573;DHT22;48626;51.678;5.806;2023-01-29T08:01:49;2.00;99.90
62573;DHT22;48626;51.678;5.806;2023-01-29T08:04:15;2.10;99.90
62573;DHT22;48626;51.678;5.806;2023-01-29T08:06:40;2.10;99.90
62573;DHT22;48626;51.678;5.806;2023-01-29T08:09:06;2.10;99.90
62573;DHT22;48626;51.678;5.806;2023-01-29T08:11:33;2.10;99.90
62573;DHT22;48626;51.678;5.806;2023-01-29T08:13:58;2.20;99.90
62573;DHT22;48626;51.678;5.806;2023-01-29T08:16:24;2.20;99.90
62573;DHT22;48626;51.678;5.806;2023-01-29T08:18:50;2.20;99.90
62573;DHT22;48626;51.678;5.806;2023-01-29T08:21:15;2.20;99.90
62573;DHT22;48626;51.678;5.806;2023-01-29T08:23:41;2.20;99.90
62573;DHT22;48626;51.678;5.806;2023-01-29T08:26:07;2.30;99.90
62573;DHT22;48626;51.678;5.806;2023-01-29T08:28:33;2.30;99.90
62573;DHT22;48626;51.678;5.806;2023-01-29T08:30:59;2.20;99.90
62573;DHT22;48626;51.678;5.806;2023-01-29T08:33:26;2.30;99.90
62573;DHT22;48626;51.678;5.806;2023-01-29T08:35:53;2.30;99.90
62573;DHT22;48626;51.678;5.806;2023-01-29T08:38:19;2.30;99.90
62573;DHT22;48626;51.678;5.806;2023-01-29T08:40:45;2.30;99.90
62573;DHT22;48626;51.678;5.806;2023-01-29T08:43:12;2.30;99.90
62573;DHT22;48626;51.678;5.806;2023-01-29T08:45:40;2.30;99.90
62573;DHT22;48626;51.678;5.806;2023-01-29T08:48:07;2.30;99.90
62573;DHT22;48626;51.678;5.806;2023-01-29T08:50:33;2.30;99.90
62573;DHT22;48626;51.678;5.806;2023-01-29T08:53:01;2.40;99.90
62573;DHT22;48626;51.678;5.806;2023-01-29T08:55:27;2.40;99.90
62573;DHT22;48626;51.678;5.806;2023-01-29T08:57:53;2.40;99.90
62573;DHT22;48626;51.678;5.806;2023-01-29T09:00:19;2.50;99.90
62573;DHT22;48626;51.678;5.806;2023-01-29T09:02:45;2.40;99.90
62573;DHT22;48626;51.678;5.806;2023-01-29T09:05:10;2.50;99.90
62573;DHT22;48626;51.678;5.806;2023-01-29T09:07:36;2.50;99.90
62573;DHT22;48626;51.678;5.806;2023-01-29T09:10:02;2.50;99.90
62573;DHT22;48626;51.678;5.806;2023-01-29T09:12:28;2.60;99.90
62573;DHT22;48626;51.678;5.806;2023-01-29T09:14:53;2.60;99.90
62573;DHT22;48626;51.678;5.806;2023-01-29T09:17:19;2.60;99.90
62573;DHT22;48626;51.678;5.806;2023-01-29T09:19:45;2.60;99.90
62573;DHT22;48626;51.678;5.806;2023-01-29T09:22:11;2.70;99.90
62573;DHT22;48626;51.678;5.806;2023-01-29T09:24:36;2.70;99.90
62573;DHT22;48626;51.678;5.806;2023-01-29T09:27:02;2.70;99.90
62573;DHT22;48626;51.678;5.806;2023-01-29T09:29:28;2.80;99.90
62573;DHT22;48626;51.678;5.806;2023-01-29T09:31:54;2.80;99.90
62573;DHT22;48626;51.678;5.806;2023-01-29T09:34:19;2.90;99.90
62573;DHT22;48626;51.678;5.806;2023-01-29T09:36:45;2.90;99.90
62573;DHT22;48626;51.678;5.806;2023-01-29T09:39:11;2.90;99.90
62573;DHT22;48626;51.678;5.806;2023-01-29T09:47:13;2.90;99.90
62573;DHT22;48626;51.678;5.806;2023-01-29T09:49:46;2.90;99.90
62573;DHT22;48626;51.678;5.806;2023-01-29T09:52:28;3.00;99.90
62573;DHT22;48626;51.678;5.806;2023-01-29T10:00:32;3.00;99.90
62573;DHT22;48626;51.678;5.806;2023-01-29T10:03:14;3.10;99.90
62573;DHT22;48626;51.678;5.806;2023-01-29T10:20:04;3.30;99.90
62573;DHT22;48626;51.678;5.806;2023-01-29T10:22:54;3.30;99.90
62573;DHT22;48626;51.678;5.806;2023-01-29T10:25:22;3.20;99.90
62573;DHT22;48626;51.678;5.806;2023-01-29T10:27:51;3.30;99.90
62573;DHT22;48626;51.678;5.806;2023-01-29T10:30:30;3.30;99.90
62573;DHT22;48626;51.678;5.806;2023-01-29T10:33:03;3.30;99.90
62573;DHT22;48626;51.678;5.806;2023-01-29T10:35:33;3.30;99.90
62573;DHT22;48626;51.678;5.806;2023-01-29T10:46:24;3.40;99.90
62573;DHT22;48626;51.678;5.806;2023-01-29T10:51:33;3.60;99.90
62573;DHT22;48626;51.678;5.806;2023-01-29T10:54:18;3.60;99.90
62573;DHT22;48626;51.678;5.806;2023-01-29T11:02:44;3.60;99.10
62573;DHT22;48626;51.678;5.806;2023-01-29T11:05:33;3.70;98.70
62573;DHT22;48626;51.678;5.806;2023-01-29T11:08:05;3.70;98.80
62573;DHT22;48626;51.678;5.806;2023-01-29T11:10:38;3.70;98.20
62573;DHT22;48626;51.678;5.806;2023-01-29T11:13:05;3.80;98.20
62573;DHT22;48626;51.678;5.806;2023-01-29T11:15:32;3.80;98.50
62573;DHT22;48626;51.678;5.806;2023-01-29T11:18:08;3.90;99.00
62573;DHT22;48626;51.678;5.806;2023-01-29T11:20:42;3.90;98.00
62573;DHT22;48626;51.678;5.806;2023-01-29T11:23:25;3.90;97.70
62573;DHT22;48626;51.678;5.806;2023-01-29T11:25:52;4.10;98.00
62573;DHT22;48626;51.678;5.806;2023-01-29T11:28:35;4.10;97.40
62573;DHT22;48626;51.678;5.806;2023-01-29T11:31:01;4.10;96.40
62573;DHT22;48626;51.678;5.806;2023-01-29T11:33:27;4.20;97.20
62573;DHT22;48626;51.678;5.806;2023-01-29T11:35:53;4.20;96.00
62573;DHT22;48626;51.678;5.806;2023-01-29T11:40:46;4.30;96.40
62573;DHT22;48626;51.678;5.806;2023-01-29T11:45:52;4.40;95.90
62573;DHT22;48626;51.678;5.806;2023-01-29T11:48:20;4.50;96.00
62573;DHT22;48626;51.678;5.806;2023-01-29T11:50:55;4.50;94.20
62573;DHT22;48626;51.678;5.806;2023-01-29T11:53:42;4.50;95.40
62573;DHT22;48626;51.678;5.806;2023-01-29T11:56:21;4.60;94.90
62573;DHT22;48626;51.678;5.806;2023-01-29T11:58:49;4.70;95.20
62573;DHT22;48626;51.678;5.806;2023-01-29T12:01:17;4.70;93.70
62573;DHT22;48626;51.678;5.806;2023-01-29T12:03:52;4.70;93.60
62573;DHT22;48626;51.678;5.806;2023-01-29T12:06:24;4.70;93.20
62573;DHT22;48626;51.678;5.806;2023-01-29T12:08:57;4.70;93.80
62573;DHT22;48626;51.678;5.806;2023-01-29T12:11:32;4.70;94.00
62573;DHT22;48626;51.678;5.806;2023-01-29T12:14:00;4.80;93.80
62573;DHT22;48626;51.678;5.806;2023-01-29T12:21:34;4.70;93.40
62573;DHT22;48626;51.678;5.806;2023-01-29T12:24:22;4.60;93.10
62573;DHT22;48626;51.678;5.806;2023-01-29T12:30:09;4.50;93.30
62573;DHT22;48626;51.678;5.806;2023-01-29T12:33:13;4.50;93.40
62573;DHT22;48626;51.678;5.806;2023-01-29T12:35:56;4.50;93.40
62573;DHT22;48626;51.678;5.806;2023-01-29T12:38:25;4.50;93.50
62573;DHT22;48626;51.678;5.806;2023-01-29T12:40:58;4.50;93.90
62573;DHT22;48626;51.678;5.806;2023-01-29T12:46:26;4.40;93.20
62573;DHT22;48626;51.678;5.806;2023-01-29T12:48:54;4.50;93.80
62573;DHT22;48626;51.678;5.806;2023-01-29T12:51:25;4.40;93.40
62573;DHT22;48626;51.678;5.806;2023-01-29T12:54:10;4.40;93.50
62573;DHT22;48626;51.678;5.806;2023-01-29T12:56:48;4.40;94.00
62573;DHT22;48626;51.678;5.806;2023-01-29T12:59:35;4.50;93.50
62573;DHT22;48626;51.678;5.806;2023-01-29T13:02:14;4.50;93.60
62573;DHT22;48626;51.678;5.806;2023-01-29T13:04:44;4.50;93.70
62573;DHT22;48626;51.678;5.806;2023-01-29T13:07:17;4.50;93.60
62573;DHT22;48626;51.678;5.806;2023-01-29T13:09:49;4.50;93.60
62573;DHT22;48626;51.678;5.806;2023-01-29T13:12:18;4.60;93.60
62573;DHT22;48626;51.678;5.806;2023-01-29T13:14:52;4.60;93.90
62573;DHT22;48626;51.678;5.806;2023-01-29T13:17:27;4.60;93.70
62573;DHT22;48626;51.678;5.806;2023-01-29T13:20:04;4.70;93.80
62573;DHT22;48626;51.678;5.806;2023-01-29T13:22:37;4.70;94.00
62573;DHT22;48626;51.678;5.806;2023-01-29T13:25:04;4.80;94.20
62573;DHT22;48626;51.678;5.806;2023-01-29T13:27:32;4.80;93.80
62573;DHT22;48626;51.678;5.806;2023-01-29T13:29:58;4.80;93.60
62573;DHT22;48626;51.678;5.806;2023-01-29T13:32:30;4.90;93.90
62573;DHT22;48626;51.678;5.806;2023-01-29T13:35:05;4.90;94.00
62573;DHT22;48626;51.678;5.806;2023-01-29T13:37:41;4.90;93.80
62573;DHT22;48626;51.678;5.806;2023-01-29T13:40:25;5.00;93.90
62573;DHT22;48626;51.678;5.806;2023-01-29T13:42:53;5.00;93.30
62573;DHT22;48626;51.678;5.806;2023-01-29T13:45:20;4.90;93.30
62573;DHT22;48626;51.678;5.806;2023-01-29T13:47:47;4.90;93.40
62573;DHT22;48626;51.678;5.806;2023-01-29T13:50:39;5.00;93.40
62573;DHT22;48626;51.678;5.806;2023-01-29T13:53:07;5.00;93.50
62573;DHT22;48626;51.678;5.806;2023-01-29T13:55:41;5.00;93.50
62573;DHT22;48626;51.678;5.806;2023-01-29T14:00:47;5.00;93.50
62573;DHT22;48626;51.678;5.806;2023-01-29T14:05:55;4.90;93.70
62573;DHT22;48626;51.678;5.806;2023-01-29T14:13:42;5.00;93.80
62573;DHT22;48626;51.678;5.806;2023-01-29T14:18:35;5.00;93.90
62573;DHT22;48626;51.678;5.806;2023-01-29T14:23:45;5.00;93.20
62573;DHT22;48626;51.678;5.806;2023-01-29T14:26:26;5.00;93.60
62573;DHT22;48626;51.678;5.806;2023-01-29T14:29:17;5.00;93.60
62573;DHT22;48626;51.678;5.806;2023-01-29T14:32:19;5.00;93.60
62573;DHT22;48626;51.678;5.806;2023-01-29T14:34:59;5.00;93.80
62573;DHT22;48626;51.678;5.806;2023-01-29T14:37:34;4.90;93.90
62573;DHT22;48626;51.678;5.806;2023-01-29T14:43:08;5.00;93.70
62573;DHT22;48626;51.678;5.806;2023-01-29T14:45:45;5.00;93.80
62573;DHT22;48626;51.678;5.806;2023-01-29T14:50:42;5.00;93.60
62573;DHT22;48626;51.678;5.806;2023-01-29T14:56:55;5.00;94.00
62573;DHT22;48626;51.678;5.806;2023-01-29T14:59:22;5.00;93.90
62573;DHT22;48626;51.678;5.806;2023-01-29T15:01:53;5.00;93.90
62573;DHT22;48626;51.678;5.806;2023-01-29T15:04:46;5.00;94.20
62573;DHT22;48626;51.678;5.806;2023-01-29T15:07:43;5.00;94.30
62573;DHT22;48626;51.678;5.806;2023-01-29T15:10:47;5.00;93.70
62573;DHT22;48626;51.678;5.806;2023-01-29T15:13:32;5.00;93.90
62573;DHT22;48626;51.678;5.806;2023-01-29T15:16:08;4.90;93.60
62573;DHT22;48626;51.678;5.806;2023-01-29T15:18:40;4.90;94.10
62573;DHT22;48626;51.678;5.806;2023-01-29T15:21:17;4.90;94.10
62573;DHT22;48626;51.678;5.806;2023-01-29T15:23:44;4.90;94.30
62573;DHT22;48626;51.678;5.806;2023-01-29T15:26:23;4.90;94.30
62573;DHT22;48626;51.678;5.806;2023-01-29T15:28:58;4.90;94.20
62573;DHT22;48626;51.678;5.806;2023-01-29T15:31:24;4.90;94.40
62573;DHT22;48626;51.678;5.806;2023-01-29T15:33:53;4.80;94.30
62573;DHT22;48626;51.678;5.806;2023-01-29T15:36:23;4.90;94.50
62573;DHT22;48626;51.678;5.806;2023-01-29T15:41:37;4.80;94.20
62573;DHT22;48626;51.678;5.806;2023-01-29T15:44:07;4.80;94.30
62573;DHT22;48626;51.678;5.806;2023-01-29T15:46:37;4.70;94.30
62573;DHT22;48626;51.678;5.806;2023-01-29T15:49:07;4.70;94.50
62573;DHT22;48626;51.678;5.806;2023-01-29T15:51:35;4.80;94.70
62573;DHT22;48626;51.678;5.806;2023-01-29T15:54:05;4.80;94.50
62573;DHT22;48626;51.678;5.806;2023-01-29T15:56:37;4.70;94.70
62573;DHT22;48626;51.678;5.806;2023-01-29T15:59:05;4.70;94.40
62573;DHT22;48626;51.678;5.806;2023-01-29T16:01:31;4.70;94.60
62573;DHT22;48626;51.678;5.806;2023-01-29T16:03:58;4.70;94.60
62573;DHT22;48626;51.678;5.806;2023-01-29T16:06:34;4.70;94.70
62573;DHT22;48626;51.678;5.806;2023-01-29T16:09:01;4.70;94.80
62573;DHT22;48626;51.678;5.806;2023-01-29T16:11:27;4.70;94.90
62573;DHT22;48626;51.678;5.806;2023-01-29T16:13:54;4.70;94.70
62573;DHT22;48626;51.678;5.806;2023-01-29T16:16:24;4.60;94.80
62573;DHT22;48626;51.678;5.806;2023-01-29T16:18:50;4.60;94.50
62573;DHT22;48626;51.678;5.806;2023-01-29T16:21:37;4.60;94.90
62573;DHT22;48626;51.678;5.806;2023-01-29T16:24:05;4.60;94.80
62573;DHT22;48626;51.678;5.806;2023-01-29T16:26:41;4.60;94.70
62573;DHT22;48626;51.678;5.806;2023-01-29T16:29:10;4.60;94.90
62573;DHT22;48626;51.678;5.806;2023-01-29T16:31:37;4.60;95.10
62573;DHT22;48626;51.678;5.806;2023-01-29T16:36:45;4.60;95.10
62573;DHT22;48626;51.678;5.806;2023-01-29T16:39:18;4.60;95.00
62573;DHT22;48626;51.678;5.806;2023-01-29T16:42:21;4.50;95.00
62573;DHT22;48626;51.678;5.806;2023-01-29T16:49:55;4.50;95.40
62573;DHT22;48626;51.678;5.806;2023-01-29T16:52:30;4.60;95.20
62573;DHT22;48626;51.678;5.806;2023-01-29T16:55:20;4.50;95.30
62573;DHT22;48626;51.678;5.806;2023-01-29T16:57:53;4.60;95.40
62573;DHT22;48626;51.678;5.806;2023-01-29T17:00:27;4.50;95.40
62573;DHT22;48626;51.678;5.806;2023-01-29T17:02:59;4.60;95.50
62573;DHT22;48626;51.678;5.806;2023-01-29T17:05:29;4.50;95.00
62573;DHT22;48626;51.678;5.806;2023-01-29T17:07:57;4.50;95.70
62573;DHT22;48626;51.678;5.806;2023-01-29T17:10:24;4.60;95.60
62573;DHT22;48626;51.678;5.806;2023-01-29T17:12:56;4.50;95.50
62573;DHT22;48626;51.678;5.806;2023-01-29T17:15:32;4.60;96.00
62573;DHT22;48626;51.678;5.806;2023-01-29T17:17:58;4.60;95.80
62573;DHT22;48626;51.678;5.806;2023-01-29T17:20:23;4.50;95.90
62573;DHT22;48626;51.678;5.806;2023-01-29T17:22:49;4.50;95.90
62573;DHT22;48626;51.678;5.806;2023-01-29T17:25:15;4.50;96.50
62573;DHT22;48626;51.678;5.806;2023-01-29T17:27:43;4.50;96.60
62573;DHT22;48626;51.678;5.806;2023-01-29T17:30:17;4.50;96.60
62573;DHT22;48626;51.678;5.806;2023-01-29T17:32:43;4.50;96.60
62573;DHT22;48626;51.678;5.806;2023-01-29T17:35:13;4.50;96.60
62573;DHT22;48626;51.678;5.806;2023-01-29T17:37:39;4.50;96.00
62573;DHT22;48626;51.678;5.806;2023-01-29T17:40:20;4.50;96.10
62573;DHT22;48626;51.678;5.806;2023-01-29T17:42:48;4.50;96.00
62573;DHT22;48626;51.678;5.806;2023-01-29T17:45:14;4.50;96.10
62573;DHT22;48626;51.678;5.806;2023-01-29T17:47:40;4.50;95.80
62573;DHT22;48626;51.678;5.806;2023-01-29T17:50:25;4.50;95.70
62573;DHT22;48626;51.678;5.806;2023-01-29T17:52:51;4.50;95.70
62573;DHT22;48626;51.678;5.806;2023-01-29T17:55:18;4.50;95.80
62573;DHT22;48626;51.678;5.806;2023-01-29T17:57:44;4.50;95.50
62573;DHT22;48626;51.678;5.806;2023-01-29T18:00:28;4.50;95.60
62573;DHT22;48626;51.678;5.806;2023-01-29T18:02:54;4.50;95.20
62573;DHT22;48626;51.678;5.806;2023-01-29T18:05:20;4.50;95.70
62573;DHT22;48626;51.678;5.806;2023-01-29T18:07:46;4.50;96.00
62573;DHT22;48626;51.678;5.806;2023-01-29T18:10:15;4.50;95.70
62573;DHT22;48626;51.678;5.806;2023-01-29T18:12:42;4.50;95.60
62573;DHT22;48626;51.678;5.806;2023-01-29T18:15:09;4.50;95.60
62573;DHT22;48626;51.678;5.806;2023-01-29T18:17:34;4.50;95.70
62573;DHT22;48626;51.678;5.806;2023-01-29T18:20:01;4.50;95.60
62573;DHT22;48626;51.678;5.806;2023-01-29T18:22:27;4.50;95.40
62573;DHT22;48626;51.678;5.806;2023-01-29T18:24:53;4.60;95.60
62573;DHT22;48626;51.678;5.806;2023-01-29T18:27:18;4.50;95.40
62573;DHT22;48626;51.678;5.806;2023-01-29T18:29:44;4.60;95.60
62573;DHT22;48626;51.678;5.806;2023-01-29T18:32:10;4.50;95.80
62573;DHT22;48626;51.678;5.806;2023-01-29T18:34:36;4.50;95.70
62573;DHT22;48626;51.678;5.806;2023-01-29T18:37:02;4.60;95.80
62573;DHT22;48626;51.678;5.806;2023-01-29T18:39:28;4.60;95.90
62573;DHT22;48626;51.678;5.806;2023-01-29T18:41:53;4.60;96.00